createdAt,value
2018-01-15T00:00:01.724Z,39.03
2018-01-15T00:02:29.376Z,35.63
2018-01-15T00:04:57.039Z,39.65
2018-01-15T00:07:24.598Z,39.92
2018-01-15T00:09:52.343Z,33.60
2018-01-15T00:12:19.914Z,42.35
2018-01-15T00:14:48.236Z,38.75
2018-01-15T00:17:15.927Z,40.50
2018-01-15T00:19:43.549Z,39.70
2018-01-15T00:22:13.949Z,37.13
2018-01-15T00:24:42.445Z,37.80
2018-01-15T00:27:10.147Z,40.00
2018-01-15T00:29:38.067Z,35.72
2018-01-15T00:32:06.487Z,35.45
2018-01-15T00:34:34.026Z,41.20
2018-01-15T00:37:01.730Z,39.72
2018-01-15T00:39:30.743Z,38.88
2018-01-15T00:41:59.074Z,42.78
2018-01-15T00:44:29.667Z,38.83
2018-01-15T00:46:57.295Z,41.90
2018-01-15T00:49:25.114Z,37.25
2018-01-15T00:51:52.691Z,42.28
2018-01-15T00:54:21.055Z,45.12
2018-01-15T00:56:48.802Z,37.75
2018-01-15T00:59:16.502Z,36.13
2018-01-15T01:01:44.231Z,36.70
2018-01-15T01:04:11.734Z,37.60
2018-01-15T01:06:39.329Z,41.00
2018-01-15T01:09:07.717Z,41.25
2018-01-15T01:11:35.349Z,37.92
2018-01-15T01:14:03.802Z,40.15
2018-01-15T01:16:31.606Z,38.05
2018-01-15T01:18:59.297Z,45.97
2018-01-15T01:21:26.847Z,44.90
2018-01-15T01:23:54.789Z,43.70
2018-01-15T01:26:22.327Z,39.80
2018-01-15T01:28:49.928Z,40.63
2018-01-15T01:31:18.220Z,43.55
2018-01-15T01:33:45.794Z,44.88
2018-01-15T01:36:13.364Z,44.45
2018-01-15T01:38:41.004Z,45.58
2018-01-15T01:41:08.678Z,39.13
2018-01-15T01:43:36.344Z,44.15
2018-01-15T01:46:03.896Z,45.95
2018-01-15T01:48:32.189Z,39.95
2018-01-15T01:50:59.898Z,40.50
2018-01-15T01:53:27.626Z,42.70
2018-01-15T01:55:55.149Z,46.58
2018-01-15T01:58:22.687Z,43.78
2018-01-15T02:00:50.220Z,41.67
2018-01-15T02:03:17.702Z,36.95
2018-01-15T02:05:45.342Z,43.10
2018-01-15T02:08:13.718Z,44.25
2018-01-15T02:10:41.255Z,40.55
2018-01-15T02:13:08.834Z,36.83
2018-01-15T02:15:36.353Z,42.90
2018-01-15T02:18:03.907Z,38.78
2018-01-15T02:20:31.583Z,33.13
2018-01-15T02:22:59.137Z,38.85
2018-01-15T02:25:26.807Z,41.28
2018-01-15T02:27:54.305Z,40.85
2018-01-15T02:30:22.012Z,40.50
2018-01-15T02:32:49.558Z,41.20
2018-01-15T02:35:17.128Z,42.22
2018-01-15T02:37:44.667Z,42.75
2018-01-15T02:40:12.365Z,42.25
2018-01-15T02:42:40.374Z,44.47
2018-01-15T02:45:07.939Z,44.20
2018-01-15T02:47:35.462Z,41.55
2018-01-15T02:50:02.933Z,38.40
2018-01-15T02:52:30.410Z,39.70
2018-01-15T02:54:58.183Z,45.00
2018-01-15T02:57:26.418Z,43.10
2018-01-15T02:59:53.883Z,37.13
2018-01-15T03:02:21.416Z,42.60
2018-01-15T03:04:48.917Z,41.70
2018-01-15T03:07:18.443Z,42.92
2018-01-15T03:09:45.935Z,40.65
2018-01-15T03:12:13.441Z,39.90
2018-01-15T03:14:41.711Z,37.20
2018-01-15T03:17:09.997Z,46.25
2018-01-15T03:19:37.531Z,47.42
2018-01-15T03:22:05.156Z,43.87
2018-01-15T03:24:32.671Z,41.92
2018-01-15T03:27:01.030Z,42.10
2018-01-15T03:29:28.581Z,39.88
2018-01-15T03:31:56.078Z,42.03
2018-01-15T03:34:23.601Z,41.97
2018-01-15T03:36:51.111Z,49.03
2018-01-15T03:39:18.678Z,42.83
2018-01-15T03:41:46.244Z,43.30
2018-01-15T03:44:13.877Z,40.92
2018-01-15T03:46:41.421Z,41.45
2018-01-15T03:49:09.823Z,40.35
2018-01-15T03:51:37.504Z,42.28
2018-01-15T03:54:05.070Z,40.83
2018-01-15T03:56:32.673Z,37.20
2018-01-15T03:59:00.950Z,41.25
2018-01-15T04:01:28.457Z,52.85
2018-01-15T04:03:56.188Z,42.22
2018-01-15T04:06:23.744Z,39.03
2018-01-15T04:08:51.327Z,43.97
2018-01-15T04:11:18.825Z,38.60
2018-01-15T04:13:46.337Z,40.65
2018-01-15T04:16:13.883Z,44.05
2018-01-15T04:18:41.560Z,41.25
2018-01-15T04:21:09.120Z,45.10
2018-01-15T04:23:36.650Z,40.28
2018-01-15T04:26:04.158Z,42.10
2018-01-15T04:28:31.659Z,42.50
2018-01-15T04:30:59.919Z,45.63
2018-01-15T04:33:27.410Z,46.00
2018-01-15T04:35:54.940Z,46.95
2018-01-15T04:38:22.421Z,37.45
2018-01-15T04:40:50.683Z,40.63
2018-01-15T04:43:18.293Z,40.53
2018-01-15T04:45:45.773Z,42.08
2018-01-15T04:48:13.268Z,44.72
2018-01-15T04:50:40.848Z,42.88
2018-01-15T04:53:08.367Z,44.67
2018-01-15T04:55:35.885Z,41.37
2018-01-15T04:58:03.384Z,42.90
2018-01-15T05:00:30.906Z,37.17
2018-01-15T05:02:58.420Z,43.30
2018-01-15T05:05:26.750Z,47.22
2018-01-15T05:07:54.358Z,46.78
2018-01-15T05:10:22.059Z,41.70
2018-01-15T05:12:49.622Z,44.22
2018-01-15T05:15:17.131Z,44.92
2018-01-15T05:17:45.396Z,42.72
2018-01-15T05:20:12.871Z,49.33
2018-01-15T05:22:41.168Z,41.15
2018-01-15T05:25:08.665Z,44.67
2018-01-15T05:27:36.157Z,45.63
2018-01-15T05:30:03.767Z,45.03
2018-01-15T05:32:31.270Z,36.60
2018-01-15T05:34:59.545Z,43.30
2018-01-15T05:37:27.280Z,44.13
2018-01-15T05:39:54.806Z,38.58
2018-01-15T05:42:22.377Z,45.30
2018-01-15T05:44:49.989Z,49.17
2018-01-15T05:47:17.603Z,45.92
2018-01-15T05:49:45.417Z,47.55
2018-01-15T05:52:12.985Z,42.80
2018-01-15T05:54:40.501Z,52.35
2018-01-15T05:57:08.009Z,41.97
2018-01-15T05:59:35.469Z,39.60
2018-01-15T06:02:03.074Z,42.65
2018-01-15T06:04:30.656Z,46.08
2018-01-15T06:06:58.150Z,41.45
2018-01-15T06:09:25.697Z,42.50
2018-01-15T06:11:53.234Z,45.28
2018-01-15T06:14:21.530Z,41.55
2018-01-15T06:16:49.096Z,42.25
2018-01-15T06:19:16.606Z,42.53
2018-01-15T06:21:44.136Z,48.95
2018-01-15T06:24:11.665Z,42.85
2018-01-15T06:26:39.328Z,40.45
2018-01-15T06:29:07.038Z,43.67
2018-01-15T06:31:34.770Z,40.75
2018-01-15T06:34:02.732Z,37.30
2018-01-15T06:36:30.522Z,39.22
2018-01-15T06:38:58.291Z,37.28
2018-01-15T06:41:25.903Z,41.08
2018-01-15T06:43:54.553Z,43.70
2018-01-15T06:46:22.198Z,43.83
2018-01-15T06:48:50.836Z,37.80
2018-01-15T06:51:19.225Z,36.88
2018-01-15T06:53:46.903Z,42.40
2018-01-15T06:56:14.501Z,36.17
2018-01-15T06:58:42.240Z,36.97
2018-01-15T07:01:10.907Z,37.03
2018-01-15T07:03:38.472Z,37.00
2018-01-15T07:06:06.200Z,42.50
2018-01-15T07:11:09.400Z,33.10
2018-01-15T07:13:37.040Z,41.00
2018-01-15T07:16:04.711Z,40.60
2018-01-15T07:18:40.491Z,35.03
2018-01-15T07:21:08.054Z,35.90
2018-01-15T07:23:37.230Z,37.60
2018-01-15T07:26:04.765Z,40.60
2018-01-15T07:28:33.682Z,35.20
2018-01-15T07:31:01.210Z,38.30
2018-01-15T07:33:28.725Z,39.00
2018-01-15T07:35:56.750Z,35.08
2018-01-15T07:38:24.244Z,34.78
2018-01-15T07:40:52.530Z,35.25
2018-01-15T07:43:20.057Z,41.05
2018-01-15T07:45:48.202Z,39.10
2018-01-15T07:48:16.849Z,34.63
2018-01-15T07:50:54.920Z,34.08
2018-01-15T07:53:23.186Z,33.47
2018-01-15T07:55:50.667Z,34.80
2018-01-15T07:58:22.401Z,35.72
2018-01-15T08:00:49.898Z,36.03
2018-01-15T08:03:17.357Z,34.85
2018-01-15T08:05:44.821Z,35.22
2018-01-15T08:08:12.270Z,30.83
2018-01-15T08:10:39.716Z,32.58
2018-01-15T08:13:07.161Z,33.83
2018-01-15T08:15:34.617Z,29.73
2018-01-15T08:18:02.068Z,33.47
2018-01-15T08:20:29.521Z,35.30
2018-01-15T08:22:56.976Z,27.73
2018-01-15T08:25:24.442Z,34.75
2018-01-15T08:27:52.676Z,34.17
2018-01-15T08:30:20.162Z,30.90
2018-01-15T08:32:47.631Z,27.08
2018-01-15T08:35:15.164Z,28.58
2018-01-15T08:37:42.617Z,32.28
2018-01-15T08:40:10.070Z,34.22
2018-01-15T08:42:37.569Z,29.77
2018-01-15T08:45:05.790Z,29.35
2018-01-15T08:47:33.284Z,29.77
2018-01-15T08:50:00.761Z,27.73
2018-01-15T08:52:28.992Z,28.87
2018-01-15T08:54:56.469Z,31.37
2018-01-15T08:57:23.921Z,29.92
2018-01-15T08:59:51.874Z,28.98
2018-01-15T09:02:19.308Z,33.60
2018-01-15T09:04:46.749Z,28.02
2018-01-15T09:07:14.230Z,29.15
2018-01-15T09:09:41.714Z,28.48
2018-01-15T09:12:09.416Z,29.23
2018-01-15T09:14:36.937Z,29.17
2018-01-15T09:17:04.393Z,24.80
2018-01-15T09:19:31.857Z,25.17
2018-01-15T09:21:59.334Z,26.33
2018-01-15T09:24:27.578Z,27.80
2018-01-15T09:26:55.201Z,22.48
2018-01-15T09:29:22.649Z,23.75
2018-01-15T09:31:50.101Z,27.20
2018-01-15T09:34:17.549Z,26.62
2018-01-15T09:36:45.005Z,25.62
2018-01-15T09:39:12.497Z,25.80
2018-01-15T09:41:39.976Z,25.88
2018-01-15T09:44:07.431Z,23.75
2018-01-15T09:46:34.888Z,24.90
2018-01-15T09:49:02.352Z,27.35
2018-01-15T09:51:29.845Z,23.52
2018-01-15T09:53:57.296Z,23.98
2018-01-15T09:56:25.532Z,23.45
2018-01-15T09:58:53.019Z,23.30
2018-01-15T10:01:20.493Z,27.08
2018-01-15T10:03:48.034Z,24.40
2018-01-15T10:06:16.127Z,24.77
2018-01-15T10:08:44.002Z,24.35
2018-01-15T10:11:11.815Z,22.62
2018-01-15T10:13:39.650Z,23.60
2018-01-15T10:16:07.534Z,24.20
2018-01-15T10:18:35.178Z,22.80
2018-01-15T10:21:02.955Z,22.10
2018-01-15T10:23:30.591Z,24.67
2018-01-15T10:25:58.089Z,23.58
2018-01-15T10:28:25.555Z,30.40
2018-01-15T10:30:53.027Z,24.48
2018-01-15T10:33:21.240Z,20.90
2018-01-15T10:35:48.702Z,23.50
2018-01-15T10:38:16.163Z,20.30
2018-01-15T10:40:43.629Z,21.60
2018-01-15T10:43:11.113Z,22.95
2018-01-15T10:57:23.698Z,23.80
2018-01-15T11:20:42.461Z,23.67
2018-01-15T11:26:02.550Z,17.23
2018-01-15T11:28:30.145Z,18.37
2018-01-15T11:30:57.640Z,22.00
2018-01-15T11:33:25.147Z,20.27
2018-01-15T11:35:52.626Z,18.55
2018-01-15T11:38:20.148Z,18.25
2018-01-15T11:40:47.663Z,24.60
2018-01-15T11:43:15.149Z,20.83
2018-01-15T11:45:42.633Z,24.23
2018-01-15T11:48:10.124Z,18.02
2018-01-15T11:50:37.598Z,20.60
2018-01-15T11:53:05.118Z,21.48
2018-01-15T11:55:32.611Z,18.40
2018-01-15T11:58:00.913Z,19.23
2018-01-15T12:00:28.398Z,24.08
2018-01-15T12:02:55.894Z,21.02
2018-01-15T12:05:23.373Z,24.58
2018-01-15T12:07:50.862Z,21.40
2018-01-15T12:10:18.369Z,27.05
2018-01-15T12:12:45.961Z,22.30
2018-01-15T12:15:13.436Z,19.83
2018-01-15T12:17:40.913Z,23.75
2018-01-15T12:20:08.441Z,22.05
2018-01-15T12:22:35.945Z,20.08
2018-01-15T12:25:03.398Z,19.35
2018-01-15T12:27:30.901Z,21.15
2018-01-15T12:29:58.377Z,21.55
2018-01-15T12:32:25.858Z,22.25
2018-01-15T12:34:53.330Z,23.20
2018-01-15T12:37:20.841Z,22.50
2018-01-15T12:39:48.326Z,21.25
2018-01-15T12:42:15.839Z,25.08
2018-01-15T12:44:43.453Z,19.83
2018-01-15T12:47:10.954Z,22.27
2018-01-15T12:49:38.528Z,21.58
2018-01-15T12:52:06.029Z,20.30
2018-01-15T12:54:33.608Z,24.60
2018-01-15T12:57:01.224Z,21.25
2018-01-15T12:59:28.830Z,23.55
2018-01-15T13:01:56.555Z,21.98
2018-01-15T13:04:24.514Z,23.90
2018-01-15T13:09:28.881Z,21.92
2018-01-15T13:11:57.357Z,21.67
2018-01-15T13:14:25.837Z,21.80
2018-01-15T13:16:55.107Z,22.25
2018-01-15T13:22:15.389Z,26.40
2018-01-15T13:24:47.337Z,18.58
2018-01-15T13:27:16.415Z,21.95
2018-01-15T13:29:43.906Z,21.90
2018-01-15T13:32:11.605Z,22.30
2018-01-15T13:34:39.182Z,25.75
2018-01-15T13:37:07.505Z,19.25
2018-01-15T13:39:35.135Z,23.23
2018-01-15T13:42:03.546Z,24.87
2018-01-15T13:44:31.466Z,22.25
2018-01-15T13:47:02.800Z,20.30
2018-01-15T13:49:34.239Z,25.10
2018-01-15T13:52:09.300Z,20.35
2018-01-15T13:54:38.760Z,26.60
2018-01-15T13:57:07.049Z,20.70
2018-01-15T13:59:51.572Z,20.00
2018-01-15T14:08:40.315Z,21.08
2018-01-15T14:15:27.897Z,21.17
2018-01-15T14:17:55.443Z,23.70
2018-01-15T14:20:22.997Z,19.25
2018-01-15T14:23:14.678Z,22.48
2018-01-15T14:25:48.448Z,22.58
2018-01-15T14:28:22.437Z,25.77
2018-01-15T14:30:50.776Z,24.25
2018-01-15T14:33:23.428Z,24.52
2018-01-15T14:35:58.158Z,18.67
2018-01-15T14:41:18.694Z,25.27
2018-01-15T14:43:50.053Z,22.92
2018-01-15T14:49:46.964Z,22.40
2018-01-15T14:52:38.802Z,22.90
2018-01-15T14:58:34.207Z,21.52
2018-01-15T15:15:39.931Z,17.90
2018-01-15T15:21:10.787Z,21.90
2018-01-15T15:23:46.682Z,20.98
2018-01-15T15:26:58.672Z,26.20
2018-01-15T15:53:39.904Z,21.70
2018-01-15T15:56:07.399Z,20.73
2018-01-15T15:58:34.921Z,20.25
2018-01-15T16:01:02.616Z,20.20
2018-01-15T16:03:30.909Z,20.88
2018-01-15T16:05:58.480Z,21.20
2018-01-15T16:08:25.984Z,24.30
2018-01-15T16:10:53.430Z,24.67
2018-01-15T16:13:21.464Z,24.52
2018-01-15T16:15:48.937Z,20.75
2018-01-15T16:18:16.425Z,19.73
2018-01-15T16:20:43.938Z,22.48
2018-01-15T16:23:11.462Z,22.00
2018-01-15T16:25:39.725Z,21.62
2018-01-15T16:28:11.742Z,20.60
2018-01-15T16:30:39.257Z,23.77
2018-01-15T16:33:07.704Z,20.80
2018-01-15T16:35:36.034Z,21.42
2018-01-15T16:38:04.425Z,28.15
2018-01-15T16:40:32.168Z,23.33
2018-01-15T16:43:00.494Z,22.52
2018-01-15T16:45:28.041Z,20.48
2018-01-15T16:47:55.652Z,20.35
2018-01-15T16:50:25.825Z,24.40
2018-01-15T16:52:53.341Z,24.63
2018-01-15T16:55:21.606Z,23.48
2018-01-15T16:57:55.713Z,20.48
2018-01-15T17:00:24.746Z,21.17
2018-01-15T17:02:52.260Z,20.90
2018-01-15T17:05:21.073Z,23.33
2018-01-15T17:07:48.599Z,21.15
2018-01-15T17:10:16.058Z,27.80
2018-01-15T17:12:43.547Z,23.73
2018-01-15T17:15:11.054Z,22.85
2018-01-15T17:17:38.563Z,22.95
2018-01-15T17:20:06.817Z,22.62
2018-01-15T17:22:34.378Z,25.17
2018-01-15T17:25:01.891Z,26.73
2018-01-15T17:27:29.352Z,20.48
2018-01-15T17:30:02.661Z,21.10
2018-01-15T17:32:33.164Z,24.30
2018-01-15T17:47:30.469Z,23.85
2018-01-15T18:02:01.141Z,21.48
2018-01-15T18:48:54.337Z,21.65
2018-01-15T19:08:49.357Z,22.75
2018-01-15T19:13:55.995Z,21.67
2018-01-15T19:16:27.806Z,21.65
2018-01-15T19:18:56.665Z,21.85
2018-01-15T19:21:24.629Z,22.35
2018-01-15T19:23:56.697Z,23.80
2018-01-15T19:26:24.600Z,28.85
2018-01-15T19:28:54.722Z,23.00
2018-01-15T19:31:23.470Z,25.73
2018-01-15T19:33:51.191Z,24.25
2018-01-15T19:36:39.979Z,26.08
2018-01-15T19:39:13.054Z,23.87
2018-01-15T19:41:41.734Z,23.30
2018-01-15T19:44:28.262Z,22.00
2018-01-15T19:47:01.482Z,23.50
2018-01-15T19:49:34.843Z,22.35
2018-01-15T19:52:08.935Z,18.05
2018-01-15T19:54:43.446Z,24.87
2018-01-15T19:57:17.685Z,21.23
2018-01-15T19:59:52.430Z,22.40
2018-01-15T20:02:32.748Z,23.02
2018-01-15T20:05:11.937Z,21.95
2018-01-15T20:07:52.357Z,21.08
2018-01-15T20:10:34.808Z,24.75
2018-01-15T20:19:00.380Z,23.52
2018-01-15T20:21:52.033Z,20.12
2018-01-15T20:24:20.375Z,23.62
2018-01-15T20:27:00.213Z,21.30
2018-01-15T20:29:28.143Z,21.33
2018-01-15T20:31:58.615Z,19.52
2018-01-15T20:37:11.796Z,23.02
2018-01-15T20:39:41.047Z,22.37
2018-01-15T21:20:15.088Z,20.65
2018-01-15T21:22:42.603Z,23.17
2018-01-15T21:25:13.882Z,24.00
2018-01-15T21:27:42.435Z,25.60
2018-01-15T21:30:14.087Z,22.50
2018-01-15T21:32:41.790Z,22.52
2018-01-15T21:35:09.543Z,21.95
2018-01-15T21:37:37.110Z,24.48
2018-01-15T21:40:04.611Z,24.98
2018-01-15T21:42:32.277Z,23.27
2018-01-15T21:45:00.561Z,26.67
2018-01-15T21:47:28.284Z,23.65
2018-01-15T21:49:55.895Z,29.95
2018-01-15T21:52:23.415Z,23.70
2018-01-15T21:54:52.080Z,28.08
2018-01-15T21:57:19.687Z,25.77
2018-01-15T21:59:47.544Z,31.62
2018-01-15T22:02:15.252Z,26.55
2018-01-15T22:04:42.773Z,33.05
2018-01-15T22:07:10.397Z,28.62
2018-01-15T22:09:37.952Z,25.62
2018-01-15T22:12:05.463Z,30.42
2018-01-15T22:14:33.732Z,29.25
2018-01-15T22:17:02.093Z,32.55
2018-01-15T22:19:30.801Z,29.20
2018-01-15T22:21:58.310Z,33.40
2018-01-15T22:24:26.758Z,24.98
2018-01-15T22:26:54.300Z,28.65
2018-01-15T22:29:22.563Z,26.73
2018-01-15T22:31:51.934Z,24.12
2018-01-15T22:34:19.819Z,25.50
2018-01-15T22:36:47.494Z,25.05
2018-01-15T22:39:15.076Z,27.62
2018-01-15T22:41:42.878Z,24.40
2018-01-15T22:44:10.737Z,27.25
2018-01-15T22:46:39.114Z,28.35
2018-01-15T22:49:06.826Z,25.10
2018-01-15T22:51:34.369Z,26.55
2018-01-15T22:54:01.880Z,27.65
2018-01-15T22:56:29.430Z,24.52
2018-01-15T22:58:57.013Z,24.17
2018-01-15T23:01:24.670Z,25.77
2018-01-15T23:04:14.258Z,26.45
2018-01-15T23:20:39.585Z,23.20
2018-01-15T23:23:07.167Z,21.50
2018-01-15T23:25:34.676Z,25.62
2018-01-15T23:28:02.137Z,21.25
2018-01-15T23:30:29.765Z,18.87
2018-01-15T23:32:57.266Z,21.20
2018-01-15T23:35:24.757Z,20.23
2018-01-15T23:37:52.267Z,20.48
2018-01-15T23:40:19.740Z,16.85
2018-01-15T23:42:47.287Z,18.23
2018-01-15T23:45:16.141Z,16.70
2018-01-15T23:47:43.674Z,17.08
2018-01-15T23:50:11.195Z,18.33
2018-01-15T23:52:38.890Z,18.48
2018-01-15T23:55:06.394Z,16.40
2018-01-15T23:57:33.861Z,15.90
